createdAt,value
2019-06-27T00:00:35.033Z,18.00
2019-06-27T00:03:05.763Z,17.90
2019-06-27T00:05:36.394Z,17.90
2019-06-27T00:08:06.827Z,17.80
2019-06-27T00:10:37.365Z,17.80
2019-06-27T00:13:07.773Z,17.80
2019-06-27T00:15:38.440Z,17.80
2019-06-27T00:18:08.820Z,17.80
2019-06-27T00:20:40.100Z,18.00
2019-06-27T00:23:10.759Z,17.70
2019-06-27T00:25:41.079Z,18.00
2019-06-27T00:28:11.991Z,17.90
2019-06-27T00:30:45.280Z,17.70
2019-06-27T00:33:16.305Z,17.90
2019-06-27T00:35:47.770Z,17.90
2019-06-27T00:38:18.972Z,17.80
2019-06-27T00:40:49.309Z,17.60
2019-06-27T00:43:20.416Z,17.70
2019-06-27T00:45:50.769Z,17.90
2019-06-27T00:48:21.631Z,17.90
2019-06-27T00:51:11.087Z,17.90
2019-06-27T00:53:42.046Z,17.60
2019-06-27T00:56:12.814Z,17.70
2019-06-27T00:58:43.177Z,17.60
2019-06-27T01:01:13.577Z,17.60
2019-06-27T01:03:43.978Z,17.70
2019-06-27T01:06:14.907Z,17.70
2019-06-27T01:08:45.277Z,17.70
2019-06-27T01:11:16.114Z,17.40
2019-06-27T01:13:46.756Z,17.40
2019-06-27T01:16:17.493Z,17.40
2019-06-27T01:18:48.274Z,17.30
2019-06-27T01:21:18.607Z,17.10
2019-06-27T01:23:48.942Z,17.40
2019-06-27T01:26:19.311Z,17.40
2019-06-27T01:28:50.014Z,17.60
2019-06-27T01:31:23.131Z,17.50
2019-06-27T01:33:53.870Z,17.30
2019-06-27T01:36:24.231Z,17.50
2019-06-27T01:38:55.160Z,17.50
2019-06-27T01:41:25.518Z,17.30
2019-06-27T01:43:55.930Z,17.10
2019-06-27T01:46:26.268Z,17.10
2019-06-27T01:48:56.998Z,17.10
2019-06-27T01:51:27.761Z,17.20
2019-06-27T01:53:58.112Z,17.30
2019-06-27T01:56:28.536Z,17.30
2019-06-27T01:58:59.045Z,17.30
2019-06-27T02:01:29.680Z,17.20
2019-06-27T02:04:00.297Z,17.10
2019-06-27T02:06:31.524Z,17.10
2019-06-27T02:09:02.232Z,17.10
2019-06-27T02:11:32.609Z,17.30
2019-06-27T02:14:03.265Z,17.10
2019-06-27T02:16:34.409Z,16.90
2019-06-27T02:19:04.915Z,17.00
2019-06-27T02:21:35.294Z,17.00
2019-06-27T02:24:06.071Z,16.80
2019-06-27T02:26:36.629Z,16.80
2019-06-27T02:29:07.050Z,16.90
2019-06-27T02:31:37.714Z,17.10
2019-06-27T02:34:08.078Z,17.10
2019-06-27T02:36:38.421Z,16.80
2019-06-27T02:39:09.139Z,17.10
2019-06-27T02:41:39.535Z,17.30
2019-06-27T02:44:09.924Z,17.30
2019-06-27T02:46:40.907Z,17.40
2019-06-27T02:49:11.587Z,17.20
2019-06-27T02:51:41.945Z,17.10
2019-06-27T02:54:12.321Z,17.20
2019-06-27T02:56:42.675Z,17.00
2019-06-27T02:59:13.701Z,16.90
2019-06-27T03:01:44.872Z,16.90
2019-06-27T03:04:15.314Z,16.90
2019-06-27T03:06:45.796Z,16.80
2019-06-27T03:09:16.598Z,16.80
2019-06-27T03:11:47.407Z,16.90
2019-06-27T03:14:18.132Z,16.70
2019-06-27T03:16:48.518Z,16.70
2019-06-27T03:19:19.243Z,16.40
2019-06-27T03:21:49.663Z,16.60
2019-06-27T03:24:20.150Z,16.70
2019-06-27T03:26:52.545Z,16.80
2019-06-27T03:29:24.104Z,16.50
2019-06-27T03:31:55.573Z,16.40
2019-06-27T03:34:26.579Z,16.40
2019-06-27T03:37:04.773Z,16.40
2019-06-27T03:39:35.532Z,16.50
2019-06-27T03:42:07.504Z,16.40
2019-06-27T03:44:38.446Z,16.60
2019-06-27T03:47:09.851Z,16.50
2019-06-27T03:49:40.272Z,16.60
2019-06-27T03:52:11.372Z,16.30
2019-06-27T03:54:43.237Z,16.30
2019-06-27T03:57:14.607Z,16.30
2019-06-27T03:59:44.977Z,16.50
2019-06-27T04:02:15.318Z,16.30
2019-06-27T04:04:45.926Z,16.40
2019-06-27T04:07:16.798Z,16.60
2019-06-27T04:09:47.290Z,16.50
2019-06-27T04:12:17.721Z,16.50
2019-06-27T04:14:48.585Z,16.20
2019-06-27T04:17:19.058Z,16.10
2019-06-27T04:19:49.899Z,16.30
2019-06-27T04:22:20.528Z,16.40
2019-06-27T04:24:51.397Z,16.10
2019-06-27T04:27:21.838Z,16.40
2019-06-27T04:29:52.819Z,16.30
2019-06-27T04:32:24.159Z,16.00
2019-06-27T04:34:54.723Z,15.80
2019-06-27T04:37:25.336Z,15.40
2019-06-27T04:39:55.914Z,15.40
2019-06-27T04:42:26.355Z,15.50
2019-06-27T04:44:57.159Z,15.40
2019-06-27T04:47:27.941Z,15.10
2019-06-27T04:49:58.965Z,15.40
2019-06-27T04:52:29.737Z,15.30
2019-06-27T04:55:03.546Z,15.30
2019-06-27T04:57:33.619Z,15.30
2019-06-27T05:00:04.467Z,15.30
2019-06-27T05:02:34.974Z,15.70
2019-06-27T05:05:06.308Z,15.70
2019-06-27T05:07:36.648Z,15.40
2019-06-27T05:10:07.488Z,15.60
2019-06-27T05:12:37.814Z,15.50
2019-06-27T05:15:08.403Z,15.50
2019-06-27T05:17:39.126Z,15.00
2019-06-27T05:20:09.898Z,15.40
2019-06-27T05:22:40.365Z,15.50
2019-06-27T05:25:11.017Z,14.80
2019-06-27T05:27:41.729Z,15.10
2019-06-27T05:30:13.671Z,15.50
2019-06-27T05:32:44.824Z,15.40
2019-06-27T05:35:15.233Z,15.40
2019-06-27T05:37:45.669Z,15.60
2019-06-27T05:40:16.279Z,15.40
2019-06-27T05:42:47.085Z,15.80
2019-06-27T05:45:17.802Z,15.60
2019-06-27T05:47:48.227Z,15.50
2019-06-27T05:50:18.761Z,15.80
2019-06-27T05:52:49.184Z,15.20
2019-06-27T05:55:19.639Z,15.40
2019-06-27T05:57:50.529Z,15.50
2019-06-27T06:00:28.339Z,15.60
2019-06-27T06:02:53.398Z,15.60
2019-06-27T06:05:23.803Z,15.70
2019-06-27T06:07:54.444Z,15.50
2019-06-27T06:10:24.812Z,15.80
2019-06-27T06:12:55.435Z,15.50
2019-06-27T06:15:25.842Z,15.50
2019-06-27T06:17:56.188Z,15.80
2019-06-27T06:20:26.933Z,15.90
2019-06-27T06:22:57.354Z,15.40
2019-06-27T06:25:28.367Z,15.80
2019-06-27T06:27:58.976Z,16.20
2019-06-27T06:30:43.313Z,16.20
2019-06-27T06:33:01.527Z,16.20
2019-06-27T06:35:32.287Z,16.10
2019-06-27T06:38:02.662Z,16.20
2019-06-27T06:40:33.140Z,16.20
2019-06-27T06:43:03.509Z,16.00
2019-06-27T06:45:34.094Z,16.40
2019-06-27T06:48:04.462Z,16.40
2019-06-27T06:50:34.799Z,16.50
2019-06-27T06:53:05.499Z,16.60
2019-06-27T06:55:36.132Z,16.50
2019-06-27T06:58:06.559Z,16.90
2019-06-27T07:00:36.909Z,17.00
2019-06-27T07:03:07.510Z,16.80
2019-06-27T07:05:38.169Z,16.70
2019-06-27T07:08:08.938Z,16.60
2019-06-27T07:10:39.285Z,16.40
2019-06-27T07:13:09.891Z,16.80
2019-06-27T07:15:40.241Z,16.80
2019-06-27T07:18:10.621Z,16.80
2019-06-27T07:20:40.970Z,17.00
2019-06-27T07:23:11.668Z,16.80
2019-06-27T07:25:42.154Z,16.30
2019-06-27T07:28:12.576Z,16.60
2019-06-27T07:30:43.520Z,16.50
2019-06-27T07:33:13.867Z,16.70
2019-06-27T07:35:44.765Z,17.40
2019-06-27T07:38:15.407Z,17.80
2019-06-27T07:40:45.742Z,18.00
2019-06-27T07:43:16.186Z,18.30
2019-06-27T07:45:47.184Z,18.60
2019-06-27T07:48:17.670Z,19.20
2019-06-27T07:50:48.294Z,19.10
2019-06-27T07:53:18.718Z,19.60
2019-06-27T07:55:49.063Z,19.80
2019-06-27T07:58:19.676Z,19.70
2019-06-27T08:00:50.030Z,19.50
2019-06-27T08:03:20.795Z,19.30
2019-06-27T08:05:51.164Z,20.20
2019-06-27T08:08:21.555Z,19.80
2019-06-27T08:10:52.211Z,20.10
2019-06-27T08:13:22.636Z,19.70
2019-06-27T08:15:53.031Z,20.10
2019-06-27T08:18:23.705Z,20.60
2019-06-27T08:20:54.097Z,21.00
2019-06-27T08:23:40.605Z,20.50
2019-06-27T08:25:57.407Z,19.90
2019-06-27T08:28:28.099Z,20.50
2019-06-27T08:30:58.790Z,20.50
2019-06-27T08:33:29.802Z,20.30
2019-06-27T08:36:00.197Z,20.40
2019-06-27T08:38:30.630Z,20.90
2019-06-27T08:41:00.964Z,20.70
2019-06-27T08:43:31.335Z,20.70
2019-06-27T08:46:01.797Z,21.10
2019-06-27T08:48:32.144Z,21.50
2019-06-27T08:51:02.542Z,21.50
2019-06-27T08:53:32.937Z,21.90
2019-06-27T08:56:03.811Z,21.40
2019-06-27T08:58:34.734Z,21.50
2019-06-27T09:01:05.352Z,21.60
2019-06-27T09:03:35.841Z,21.50
2019-06-27T09:06:06.240Z,22.20
2019-06-27T09:08:38.117Z,22.50
2019-06-27T09:11:08.508Z,22.50
2019-06-27T09:13:38.871Z,22.50
2019-06-27T09:16:09.299Z,22.20
2019-06-27T09:18:39.726Z,22.00
2019-06-27T09:21:10.102Z,22.40
2019-06-27T09:23:40.789Z,23.00
2019-06-27T09:26:11.152Z,22.90
2019-06-27T09:28:42.163Z,23.40
2019-06-27T09:31:12.810Z,22.70
2019-06-27T09:33:43.483Z,22.60
2019-06-27T09:36:13.889Z,22.60
2019-06-27T09:38:44.624Z,23.10
2019-06-27T09:41:15.642Z,22.80
2019-06-27T09:43:46.815Z,23.70
2019-06-27T09:46:17.156Z,24.00
2019-06-27T09:48:47.766Z,22.50
2019-06-27T09:51:18.297Z,24.00
2019-06-27T09:53:48.679Z,24.40
2019-06-27T09:56:19.439Z,24.20
2019-06-27T09:58:49.816Z,24.00
2019-06-27T10:01:20.220Z,24.00
2019-06-27T10:03:50.917Z,23.60
2019-06-27T10:06:21.248Z,23.30
2019-06-27T10:08:51.627Z,24.10
2019-06-27T10:11:22.004Z,24.40
2019-06-27T10:13:52.939Z,23.90
2019-06-27T10:16:23.383Z,24.50
2019-06-27T10:18:53.888Z,24.80
2019-06-27T10:21:24.561Z,25.10
2019-06-27T10:23:54.954Z,25.00
2019-06-27T10:26:25.371Z,24.90
2019-06-27T10:28:55.827Z,25.20
2019-06-27T10:31:26.430Z,25.60
2019-06-27T10:33:56.845Z,26.50
2019-06-27T10:36:27.199Z,26.60
2019-06-27T10:38:57.899Z,25.60
2019-06-27T10:41:28.244Z,26.00
2019-06-27T10:43:58.965Z,25.00
2019-06-27T10:46:29.366Z,24.90
2019-06-27T10:49:00.207Z,24.40
2019-06-27T10:51:30.592Z,24.90
2019-06-27T10:54:01.998Z,25.50
2019-06-27T10:56:37.400Z,25.00
2019-06-27T10:59:05.576Z,25.10
2019-06-27T11:01:35.907Z,24.50
2019-06-27T11:04:06.296Z,25.20
2019-06-27T11:06:36.675Z,25.50
2019-06-27T11:09:07.407Z,26.60
2019-06-27T11:11:38.403Z,26.10
2019-06-27T11:14:08.758Z,25.70
2019-06-27T11:16:39.115Z,25.60
2019-06-27T11:19:09.460Z,25.50
2019-06-27T11:21:39.871Z,26.70
2019-06-27T11:24:10.558Z,27.20
2019-06-27T11:26:41.524Z,26.00
2019-06-27T11:29:12.000Z,25.50
2019-06-27T11:31:42.338Z,25.50
2019-06-27T11:34:13.097Z,26.10
2019-06-27T11:36:46.577Z,26.00
2019-06-27T11:39:16.214Z,26.40
2019-06-27T11:41:46.894Z,25.60
2019-06-27T11:44:17.627Z,25.70
2019-06-27T11:46:48.279Z,26.90
2019-06-27T11:49:18.946Z,25.20
2019-06-27T11:51:49.432Z,26.30
2019-06-27T11:54:20.048Z,26.90
2019-06-27T11:56:50.437Z,27.30
2019-06-27T11:59:20.757Z,27.20
2019-06-27T12:01:51.171Z,27.00
2019-06-27T12:04:21.912Z,26.80
2019-06-27T12:06:52.841Z,25.20
2019-06-27T12:09:23.197Z,26.00
2019-06-27T12:11:53.545Z,27.50
2019-06-27T12:14:23.939Z,27.70
2019-06-27T12:16:54.358Z,27.40
2019-06-27T12:19:24.749Z,27.50
2019-06-27T12:21:55.100Z,25.40
2019-06-27T12:24:25.558Z,27.30
2019-06-27T12:26:56.008Z,27.50
2019-06-27T12:29:26.735Z,27.20
2019-06-27T12:31:57.112Z,26.90
2019-06-27T12:34:27.567Z,26.80
2019-06-27T12:36:58.226Z,26.90
2019-06-27T12:39:29.047Z,27.70
2019-06-27T12:41:59.732Z,27.60
2019-06-27T12:44:30.091Z,26.90
2019-06-27T12:47:00.750Z,26.90
2019-06-27T12:49:49.776Z,27.20
2019-06-27T12:52:03.473Z,27.00
2019-06-27T12:54:33.895Z,27.90
2019-06-27T12:57:04.401Z,26.60
2019-06-27T12:59:34.725Z,27.80
2019-06-27T13:02:05.181Z,27.60
2019-06-27T13:04:35.790Z,27.40
2019-06-27T13:07:06.935Z,27.70
2019-06-27T13:09:37.607Z,28.10
2019-06-27T13:12:08.244Z,28.20
2019-06-27T13:14:39.010Z,27.90
2019-06-27T13:17:09.637Z,27.10
2019-06-27T13:19:40.274Z,27.40
2019-06-27T13:22:10.993Z,28.10
2019-06-27T13:24:41.373Z,27.90
2019-06-27T13:27:15.771Z,26.50
2019-06-27T13:29:46.453Z,26.90
2019-06-27T13:32:16.893Z,27.30
2019-06-27T13:34:47.289Z,27.60
2019-06-27T13:37:17.966Z,27.70
2019-06-27T13:39:48.381Z,27.30
2019-06-27T13:42:19.334Z,28.20
2019-06-27T13:44:50.788Z,27.60
2019-06-27T13:47:21.177Z,27.80
2019-06-27T13:49:52.461Z,28.00
2019-06-27T13:52:23.381Z,28.10
2019-06-27T13:54:53.751Z,27.70
2019-06-27T13:57:24.415Z,27.10
2019-06-27T13:59:54.780Z,27.30
2019-06-27T14:02:25.678Z,27.00
2019-06-27T14:04:57.799Z,27.50
2019-06-27T14:07:28.367Z,27.70
2019-06-27T14:09:59.039Z,27.20
2019-06-27T14:12:32.100Z,27.50
2019-06-27T14:15:02.471Z,27.00
2019-06-27T14:17:33.103Z,27.50
2019-06-27T14:20:03.820Z,26.40
2019-06-27T14:22:34.322Z,27.30
2019-06-27T14:25:04.669Z,27.70
2019-06-27T14:27:36.080Z,27.20
2019-06-27T14:30:07.571Z,27.30
2019-06-27T14:32:37.929Z,26.50
2019-06-27T14:35:15.974Z,26.30
2019-06-27T14:37:41.799Z,25.80
2019-06-27T14:40:14.603Z,26.60
2019-06-27T14:42:45.395Z,26.50
2019-06-27T14:45:16.931Z,26.50
2019-06-27T14:47:47.325Z,27.40
2019-06-27T14:50:18.029Z,26.90
2019-06-27T14:52:48.710Z,26.80
2019-06-27T14:55:19.623Z,26.60
2019-06-27T14:57:53.567Z,26.80
2019-06-27T15:00:30.181Z,27.00
2019-06-27T15:03:11.288Z,27.40
2019-06-27T15:05:44.475Z,27.00
2019-06-27T15:08:15.080Z,26.90
2019-06-27T15:10:45.892Z,26.80
2019-06-27T15:13:16.499Z,26.20
2019-06-27T15:15:48.328Z,26.30
2019-06-27T15:18:21.096Z,26.10
2019-06-27T15:20:51.569Z,27.00
2019-06-27T15:23:22.659Z,26.50
2019-06-27T15:25:53.074Z,26.20
2019-06-27T15:28:24.109Z,26.40
2019-06-27T15:30:54.741Z,25.90
2019-06-27T15:33:25.414Z,26.50
2019-06-27T15:35:55.869Z,26.00
2019-06-27T15:38:26.550Z,26.60
2019-06-27T15:40:57.206Z,25.60
2019-06-27T15:43:27.637Z,26.20
2019-06-27T15:46:01.950Z,26.30
2019-06-27T15:48:32.663Z,25.50
2019-06-27T15:51:03.012Z,26.00
2019-06-27T15:53:33.373Z,25.70
2019-06-27T15:56:03.782Z,24.90
2019-06-27T15:58:34.118Z,25.40
2019-06-27T16:01:04.447Z,24.60
2019-06-27T16:03:35.174Z,24.00
2019-06-27T16:06:10.160Z,23.60
2019-06-27T16:08:37.946Z,23.00
2019-06-27T16:11:08.390Z,23.30
2019-06-27T16:13:38.756Z,22.90
2019-06-27T16:16:10.759Z,23.20
2019-06-27T16:18:42.829Z,22.70
2019-06-27T16:21:13.512Z,22.90
2019-06-27T16:23:44.460Z,22.70
2019-06-27T16:26:15.425Z,22.50
2019-06-27T16:28:45.895Z,22.20
2019-06-27T16:31:16.397Z,22.40
2019-06-27T16:33:46.842Z,22.50
2019-06-27T16:36:25.605Z,22.30
2019-06-27T16:38:50.397Z,22.30
2019-06-27T16:41:21.275Z,22.40
2019-06-27T16:43:51.782Z,22.10
2019-06-27T16:46:22.847Z,21.90
2019-06-27T16:48:53.354Z,22.00
2019-06-27T16:51:26.321Z,22.00
2019-06-27T16:53:56.883Z,22.10
2019-06-27T16:56:27.301Z,22.10
2019-06-27T16:58:57.845Z,22.30
2019-06-27T17:01:28.234Z,22.10
2019-06-27T17:03:58.615Z,22.30
2019-06-27T17:06:41.415Z,22.00
2019-06-27T17:09:01.438Z,22.10
2019-06-27T17:11:31.792Z,21.90
2019-06-27T17:14:02.229Z,21.80
2019-06-27T17:16:32.597Z,22.10
2019-06-27T17:19:03.468Z,22.40
2019-06-27T17:21:33.978Z,22.50
2019-06-27T17:24:04.639Z,22.20
2019-06-27T17:26:34.987Z,22.10
2019-06-27T17:29:05.771Z,22.20
2019-06-27T17:31:36.856Z,22.00
2019-06-27T17:34:07.366Z,22.20
2019-06-27T17:36:37.977Z,21.90
2019-06-27T17:39:08.460Z,21.90
2019-06-27T17:41:38.908Z,21.50
2019-06-27T17:44:10.117Z,21.50
2019-06-27T17:46:40.445Z,21.20
2019-06-27T17:49:11.976Z,21.30
2019-06-27T17:51:42.635Z,21.60
2019-06-27T17:54:13.127Z,21.40
2019-06-27T17:56:44.130Z,21.80
2019-06-27T17:59:14.536Z,21.70
2019-06-27T18:01:45.513Z,21.40
2019-06-27T18:04:16.251Z,21.40
2019-06-27T18:06:46.605Z,21.30
2019-06-27T18:09:36.360Z,21.10
2019-06-27T18:12:07.518Z,21.20
2019-06-27T18:14:37.967Z,21.20
2019-06-27T18:17:08.348Z,21.20
2019-06-27T18:19:38.720Z,20.90
2019-06-27T18:22:09.506Z,21.10
2019-06-27T18:24:41.720Z,21.00
2019-06-27T18:27:12.516Z,21.20
2019-06-27T18:29:43.149Z,20.80
2019-06-27T18:32:13.663Z,21.20
2019-06-27T18:34:44.312Z,21.30
2019-06-27T18:37:28.782Z,21.20
2019-06-27T18:39:47.570Z,21.00
2019-06-27T18:42:17.931Z,21.10
2019-06-27T18:44:48.403Z,21.30
2019-06-27T18:47:19.136Z,20.80
2019-06-27T18:49:49.582Z,20.70
2019-06-27T18:52:19.964Z,20.60
2019-06-27T18:54:51.001Z,20.50
2019-06-27T18:57:21.386Z,20.40
2019-06-27T18:59:53.828Z,19.90
2019-06-27T19:02:24.133Z,19.90
2019-06-27T19:04:54.883Z,19.90
2019-06-27T19:07:25.278Z,20.00
2019-06-27T19:09:55.759Z,20.20
2019-06-27T19:12:26.092Z,19.90
2019-06-27T19:14:56.438Z,19.70
2019-06-27T19:17:27.387Z,19.70
2019-06-27T19:20:07.686Z,19.80
2019-06-27T19:22:56.050Z,19.60
2019-06-27T19:25:32.331Z,19.50
2019-06-27T19:28:03.627Z,19.40
2019-06-27T19:30:34.629Z,19.20
2019-06-27T19:33:15.914Z,19.20
2019-06-27T19:35:54.567Z,18.90
2019-06-27T19:38:32.441Z,19.10
2019-06-27T19:41:09.085Z,19.10
2019-06-27T19:43:43.958Z,18.80
2019-06-27T19:46:46.255Z,18.60
2019-06-27T19:49:19.579Z,18.70
2019-06-27T19:52:49.045Z,18.60
2019-06-27T19:55:32.331Z,18.40
2019-06-27T19:58:09.771Z,18.50
2019-06-27T20:01:25.138Z,18.50
2019-06-27T20:04:33.983Z,18.70
2019-06-27T20:07:06.312Z,18.40
2019-06-27T20:09:41.263Z,18.60
2019-06-27T20:12:20.621Z,18.20
2019-06-27T20:14:51.585Z,18.40
2019-06-27T20:18:17.700Z,18.20
2019-06-27T20:21:38.805Z,18.30
2019-06-27T20:24:09.937Z,18.10
2019-06-27T20:26:40.672Z,18.30
2019-06-27T20:29:11.698Z,17.80
2019-06-27T20:31:42.739Z,18.10
2019-06-27T20:34:13.085Z,17.90
2019-06-27T20:36:43.894Z,17.50
2019-06-27T20:39:14.314Z,17.50
2019-06-27T20:41:44.951Z,17.80
2019-06-27T20:44:15.336Z,18.00
2019-06-27T20:46:45.703Z,17.80
2019-06-27T20:49:16.186Z,18.00
2019-06-27T20:51:46.831Z,18.20
2019-06-27T20:54:17.298Z,18.00
2019-06-27T20:56:48.307Z,17.90
2019-06-27T20:59:18.996Z,17.80
2019-06-27T21:01:49.391Z,17.80
2019-06-27T21:04:19.799Z,17.50
2019-06-27T21:06:50.405Z,17.60
2019-06-27T21:09:20.804Z,17.70
2019-06-27T21:11:51.169Z,17.60
2019-06-27T21:14:21.819Z,17.70
2019-06-27T21:16:52.462Z,17.60
2019-06-27T21:19:22.862Z,17.70
2019-06-27T21:21:53.603Z,17.70
2019-06-27T21:24:24.262Z,17.50
2019-06-27T21:26:55.271Z,17.40
2019-06-27T21:29:25.654Z,17.10
2019-06-27T21:31:56.133Z,17.30
2019-06-27T21:34:26.637Z,17.30
2019-06-27T21:36:57.013Z,17.40
2019-06-27T21:39:27.407Z,17.40
2019-06-27T21:41:58.842Z,17.50
2019-06-27T21:44:29.711Z,17.30
2019-06-27T21:47:00.099Z,17.40
2019-06-27T21:49:31.001Z,17.40
2019-06-27T21:52:01.470Z,17.70
2019-06-27T21:54:31.809Z,17.50
2019-06-27T21:57:02.170Z,17.30
2019-06-27T21:59:32.768Z,17.70
2019-06-27T22:02:03.264Z,17.90
2019-06-27T22:04:36.105Z,17.00
2019-06-27T22:07:06.479Z,17.30
2019-06-27T22:09:36.851Z,17.50
2019-06-27T22:12:07.280Z,17.00
2019-06-27T22:14:37.661Z,17.20
2019-06-27T22:17:08.318Z,17.40
2019-06-27T22:19:38.738Z,17.50
2019-06-27T22:22:09.460Z,17.10
2019-06-27T22:24:39.852Z,16.90
2019-06-27T22:27:10.756Z,17.20
2019-06-27T22:29:41.167Z,17.50
2019-06-27T22:32:11.547Z,17.50
2019-06-27T22:34:42.252Z,17.70
2019-06-27T22:37:12.985Z,17.60
2019-06-27T22:40:01.203Z,17.50
2019-06-27T22:42:49.297Z,17.20
2019-06-27T22:45:37.188Z,17.50
2019-06-27T22:48:12.556Z,17.60
2019-06-27T22:51:08.219Z,17.30
2019-06-27T22:53:44.279Z,17.10
2019-06-27T22:56:14.668Z,17.30
2019-06-27T22:58:46.335Z,17.30
2019-06-27T23:01:16.839Z,17.30
2019-06-27T23:03:47.596Z,17.50
2019-06-27T23:06:18.005Z,17.10
2019-06-27T23:08:48.656Z,17.30
2019-06-27T23:11:19.096Z,16.80
2019-06-27T23:13:49.407Z,17.00
2019-06-27T23:16:19.787Z,17.10
2019-06-27T23:18:50.178Z,17.20
2019-06-27T23:21:20.555Z,16.70
2019-06-27T23:23:51.395Z,17.10
2019-06-27T23:26:22.059Z,17.30
2019-06-27T23:28:52.407Z,17.20
2019-06-27T23:31:22.993Z,16.90
2019-06-27T23:33:53.634Z,17.00
2019-06-27T23:36:24.294Z,17.00
2019-06-27T23:38:54.745Z,17.10
2019-06-27T23:41:25.528Z,17.20
2019-06-27T23:43:56.168Z,17.00
2019-06-27T23:46:40.407Z,16.80
2019-06-27T23:49:11.402Z,16.90
2019-06-27T23:51:42.077Z,17.00
2019-06-27T23:54:12.444Z,17.10
2019-06-27T23:56:42.903Z,17.00
2019-06-27T23:59:13.270Z,17.00
